Saint-Andre, Canada
Current Conditions -  °F | °C
As of 9:53 PM on Saturday 24 Jan 2015 (Local Time) from KFVE Reporting Station
Overcast Overcast  
Wind Chill: 17°   Ceiling: 3600
Heat Index: 24°   Visibility: 10mi
Dew Point: 18°   Wind: 6mph
Humidity: 77%   Direction: 340°NNW
Pressure: 29.12"   Gusts: NA
Location:  47.67°N, 69.73°W
Report Text: KFVE 250253Z AUTO 34005KT 10SM OVC036 M04/M08 A2912 RMK AO2 SLP872 T10441078 58041
Loading
Personal Weather Stations






























Interactive Weather Map New forecast layout! Learn more

10-Day Weather Forecast

Advertisements
Track Severe Weather on mobile